Time;durP1;ratioP1;P1;durP2;ratioP2;P2;SDS_P1;SDS_P2;PMS_P1;PMS_P2;Temp;Humidity;BMP_temperature;BMP_pressure;BME280_temperature;BME280_humidity;BME280_pressure;Samples;Min_cycle;Max_cycle;Signal;HPM_P1;HPM_P2
2023/09/06 00:00:56;;;;;;;3.63;2.50;;;;;;;;;;4948005;29;20255;-32
2023/09/06 00:03:27;;;;;;;3.77;2.90;;;;;;;;;;4946798;29;20225;-30
2023/09/06 00:05:58;;;;;;;3.03;2.73;;;;;;;;;;4945766;29;20296;-32
2023/09/06 00:08:25;;;;;;;3.87;3.00;;;;;;;;;;4945700;29;20667;-32
2023/09/06 00:10:53;;;;;;;2.63;2.43;;;;;;;;;;4945950;29;20233;-33
2023/09/06 00:13:22;;;;;;;3.93;2.70;;;;;;;;;;4947291;29;20296;-32
2023/09/06 00:15:49;;;;;;;3.83;2.70;;;;;;;;;;4939166;29;20251;-30
2023/09/06 00:18:16;;;;;;;5.57;4.10;;;;;;;;;;4944488;28;20654;-30
2023/09/06 00:20:45;;;;;;;5.57;3.60;;;;;;;;;;4951133;29;20249;-34
2023/09/06 00:23:14;;;;;;;6.60;4.03;;;;;;;;;;4950737;29;20233;-29
2023/09/06 00:25:41;;;;;;;4.10;3.20;;;;;;;;;;4944955;29;20266;-30
2023/09/06 00:28:08;;;;;;;3.50;3.20;;;;;;;;;;4952330;29;20221;-30
2023/09/06 00:30:36;;;;;;;5.77;3.30;;;;;;;;;;4951972;29;20338;-32
2023/09/06 00:33:05;;;;;;;2.90;2.70;;;;;;;;;;4944897;28;20204;-29
2023/09/06 00:35:32;;;;;;;3.67;2.80;;;;;;;;;;4953711;28;20235;-33
2023/09/06 00:38:04;;;;;;;5.47;2.90;;;;;;;;;;4950964;29;20221;-32
2023/09/06 00:40:36;;;;;;;3.00;2.70;;;;;;;;;;4946031;28;20231;-31
2023/09/06 00:43:03;;;;;;;3.17;2.87;;;;;;;;;;4952695;29;20228;-32
2023/09/06 00:45:32;;;;;;;2.80;2.60;;;;;;;;;;4953033;29;20211;-30
2023/09/06 00:48:01;;;;;;;3.47;2.90;;;;;;;;;;4948974;29;20216;-31
2023/09/06 00:50:28;;;;;;;3.77;2.73;;;;;;;;;;4949220;29;20328;-33
2023/09/06 00:52:55;;;;;;;3.43;2.97;;;;;;;;;;4948015;29;20211;-32
2023/09/06 00:55:22;;;;;;;3.77;2.93;;;;;;;;;;4941575;29;20208;-32
2023/09/06 00:57:51;;;;;;;3.30;2.87;;;;;;;;;;4947115;29;20221;-32
2023/09/06 01:00:20;;;;;;;2.97;2.67;;;;;;;;;;4947230;29;20239;-32
2023/09/06 01:02:47;;;;;;;4.47;2.97;;;;;;;;;;4949911;28;20227;-33
2023/09/06 01:05:14;;;;;;;3.50;2.67;;;;;;;;;;4950882;28;20218;-33
2023/09/06 01:07:43;;;;;;;3.60;2.37;;;;;;;;;;4950309;29;20207;-32
2023/09/06 01:10:11;;;;;;;2.90;2.60;;;;;;;;;;4945171;28;20234;-31
2023/09/06 01:12:38;;;;;;;2.50;2.30;;;;;;;;;;4950027;29;20296;-32
2023/09/06 01:15:08;;;;;;;4.27;2.77;;;;;;;;;;4949212;29;20216;-30
2023/09/06 01:17:37;;;;;;;2.83;2.60;;;;;;;;;;4946658;29;20224;-32
2023/09/06 01:20:09;;;;;;;2.93;2.70;;;;;;;;;;4950086;29;20231;-31
2023/09/06 01:22:40;;;;;;;3.50;3.00;;;;;;;;;;4949026;29;20215;-32
2023/09/06 01:25:09;;;;;;;5.13;3.37;;;;;;;;;;4941485;28;20228;-32
2023/09/06 01:27:36;;;;;;;4.00;2.77;;;;;;;;;;4948778;29;20211;-31
2023/09/06 01:30:03;;;;;;;4.30;3.20;;;;;;;;;;4950025;29;20236;-32
2023/09/06 01:32:30;;;;;;;4.30;3.33;;;;;;;;;;4951772;29;20257;-30
2023/09/06 01:34:57;;;;;;;4.33;3.47;;;;;;;;;;4946496;28;20237;-34
2023/09/06 01:37:24;;;;;;;3.10;2.80;;;;;;;;;;4951017;28;20297;-29
2023/09/06 01:39:52;;;;;;;3.27;2.80;;;;;;;;;;4940320;28;20228;-31
2023/09/06 01:42:22;;;;;;;3.60;3.00;;;;;;;;;;4951916;29;20216;-32
2023/09/06 01:44:49;;;;;;;3.20;2.90;;;;;;;;;;4947353;29;20227;-30
2023/09/06 01:47:16;;;;;;;4.27;2.93;;;;;;;;;;4939539;29;20213;-31
2023/09/06 01:49:45;;;;;;;3.93;2.90;;;;;;;;;;4951284;29;20234;-33
2023/09/06 01:52:12;;;;;;;3.37;2.53;;;;;;;;;;4951367;29;20303;-31
2023/09/06 01:54:39;;;;;;;3.37;3.03;;;;;;;;;;4944110;28;20208;-32
2023/09/06 01:57:08;;;;;;;3.57;2.77;;;;;;;;;;4945260;29;20299;-31
2023/09/06 01:59:36;;;;;;;3.70;2.97;;;;;;;;;;4949341;29;20234;-29
2023/09/06 02:02:04;;;;;;;4.00;2.90;;;;;;;;;;4946673;29;20229;-34
2023/09/06 02:04:31;;;;;;;3.10;2.70;;;;;;;;;;4948331;29;20239;-33
2023/09/06 02:06:58;;;;;;;4.73;2.70;;;;;;;;;;4949761;29;20203;-29
2023/09/06 02:09:26;;;;;;;4.17;2.90;;;;;;;;;;4941742;28;20325;-29
2023/09/06 02:11:55;;;;;;;4.10;3.03;;;;;;;;;;4948470;29;20272;-32
2023/09/06 02:14:22;;;;;;;3.83;3.37;;;;;;;;;;4948441;29;20290;-28
2023/09/06 02:16:51;;;;;;;3.73;2.97;;;;;;;;;;4948585;29;20211;-32
2023/09/06 02:19:20;;;;;;;3.07;2.53;;;;;;;;;;4946266;29;20235;-30
2023/09/06 02:21:47;;;;;;;3.33;3.03;;;;;;;;;;4951255;29;20297;-31
2023/09/06 02:24:14;;;;;;;5.07;3.20;;;;;;;;;;4943570;29;20337;-30
2023/09/06 02:26:41;;;;;;;5.37;3.40;;;;;;;;;;4946195;29;20293;-32
2023/09/06 02:29:08;;;;;;;4.43;2.90;;;;;;;;;;4937396;29;20232;-32
2023/09/06 02:31:37;;;;;;;2.90;2.60;;;;;;;;;;4941911;28;20217;-31
2023/09/06 02:34:06;;;;;;;2.77;2.57;;;;;;;;;;4943483;29;20236;-31
2023/09/06 02:36:33;;;;;;;3.10;2.43;;;;;;;;;;4944549;29;20212;-32
2023/09/06 02:39:01;;;;;;;3.83;3.10;;;;;;;;;;4939414;28;20241;-29
2023/09/06 02:41:29;;;;;;;2.87;2.60;;;;;;;;;;4946680;29;20206;-31
2023/09/06 02:43:57;;;;;;;2.93;2.57;;;;;;;;;;4943626;28;20249;-32
2023/09/06 02:46:29;;;;;;;5.33;2.83;;;;;;;;;;4945582;29;20215;-32
2023/09/06 02:48:58;;;;;;;2.90;2.60;;;;;;;;;;4944382;28;20290;-31
2023/09/06 02:51:29;;;;;;;3.27;2.90;;;;;;;;;;4946285;29;20250;-31
2023/09/06 02:53:57;;;;;;;3.10;2.60;;;;;;;;;;4945790;29;20234;-30
2023/09/06 02:56:26;;;;;;;3.57;2.57;;;;;;;;;;4945174;29;20210;-31
2023/09/06 02:58:53;;;;;;;4.90;3.07;;;;;;;;;;4949158;29;20233;-31
2023/09/06 03:01:20;;;;;;;3.17;2.70;;;;;;;;;;4946179;29;20243;-31
2023/09/06 03:03:51;;;;;;;5.50;3.07;;;;;;;;;;4941372;29;20260;-32
2023/09/06 03:06:18;;;;;;;4.47;3.07;;;;;;;;;;4942660;29;20210;-32
2023/09/06 03:08:47;;;;;;;2.83;2.53;;;;;;;;;;4942094;29;20206;-32
2023/09/06 03:11:15;;;;;;;4.00;3.30;;;;;;;;;;4943300;29;20210;-29
2023/09/06 03:13:42;;;;;;;4.73;3.10;;;;;;;;;;4946173;29;20217;-29
2023/09/06 03:16:13;;;;;;;3.90;3.53;;;;;;;;;;4948053;29;20230;-30
2023/09/06 03:18:40;;;;;;;4.60;3.07;;;;;;;;;;4946344;29;20312;-31
2023/09/06 03:21:08;;;;;;;3.67;3.27;;;;;;;;;;4948662;28;20274;-31
2023/09/06 03:23:35;;;;;;;2.93;2.63;;;;;;;;;;4944404;29;20991;-32
2023/09/06 03:26:05;;;;;;;4.60;3.40;;;;;;;;;;4946852;28;20201;-32
2023/09/06 03:28:33;;;;;;;3.23;2.97;;;;;;;;;;4946833;29;20210;-29
2023/09/06 03:31:00;;;;;;;4.23;2.87;;;;;;;;;;4938383;29;20302;-32
2023/09/06 03:33:27;;;;;;;3.90;2.83;;;;;;;;;;4945498;29;20206;-32
2023/09/06 03:35:54;;;;;;;4.03;3.07;;;;;;;;;;4947765;29;20287;-31
2023/09/06 03:38:25;;;;;;;4.87;2.73;;;;;;;;;;4946492;29;20225;-31
2023/09/06 03:40:52;;;;;;;2.83;2.57;;;;;;;;;;4943604;29;20229;-32
2023/09/06 03:43:26;;;;;;;5.27;2.90;;;;;;;;;;4945681;29;20206;-31
2023/09/06 03:45:58;;;;;;;3.70;2.97;;;;;;;;;;4941936;28;20250;-32
2023/09/06 03:48:27;;;;;;;3.23;2.93;;;;;;;;;;4942304;29;20205;-31
2023/09/06 03:50:56;;;;;;;3.70;3.27;;;;;;;;;;4945976;28;20214;-32
2023/09/06 03:53:25;;;;;;;2.97;2.77;;;;;;;;;;4942317;28;20202;-32
2023/09/06 03:55:52;;;;;;;3.73;3.00;;;;;;;;;;4945323;29;20237;-34
2023/09/06 03:58:21;;;;;;;4.27;3.17;;;;;;;;;;4939469;28;20225;-29
2023/09/06 04:00:48;;;;;;;4.93;3.03;;;;;;;;;;4945090;29;20218;-32
2023/09/06 04:03:18;;;;;;;4.03;3.17;;;;;;;;;;4947585;29;20217;-34
2023/09/06 04:05:46;;;;;;;4.70;2.90;;;;;;;;;;4940390;29;20221;-30
2023/09/06 04:08:17;;;;;;;5.17;3.60;;;;;;;;;;4945320;29;20290;-33
2023/09/06 04:10:45;;;;;;;3.27;2.97;;;;;;;;;;4943259;28;20261;-30
2023/09/06 04:13:14;;;;;;;3.90;3.20;;;;;;;;;;4944499;29;20233;-31
2023/09/06 04:15:43;;;;;;;3.50;3.20;;;;;;;;;;4945365;29;20595;-30
2023/09/06 04:18:11;;;;;;;3.50;3.17;;;;;;;;;;4943346;28;20215;-30
2023/09/06 04:20:39;;;;;;;3.43;3.07;;;;;;;;;;4948062;29;20229;-32
2023/09/06 04:23:07;;;;;;;3.47;3.03;;;;;;;;;;4946334;29;20265;-32
2023/09/06 04:25:41;;;;;;;3.83;3.10;;;;;;;;;;4944126;28;20317;-31
2023/09/06 04:28:09;;;;;;;3.30;3.00;;;;;;;;;;4947261;29;20206;-30
2023/09/06 04:30:36;;;;;;;4.70;3.23;;;;;;;;;;4949678;29;20231;-32
2023/09/06 04:33:05;;;;;;;4.50;3.27;;;;;;;;;;4943231;29;20210;-30
2023/09/06 04:35:34;;;;;;;4.90;3.20;;;;;;;;;;4946825;29;20570;-30
2023/09/06 04:38:02;;;;;;;3.40;3.10;;;;;;;;;;4947499;29;20205;-32
2023/09/06 04:40:30;;;;;;;4.37;3.10;;;;;;;;;;4945135;28;20318;-30
2023/09/06 04:42:57;;;;;;;3.10;2.87;;;;;;;;;;4945272;29;20212;-31
2023/09/06 04:45:24;;;;;;;3.30;3.00;;;;;;;;;;4943586;29;20232;-32
2023/09/06 04:47:51;;;;;;;4.87;3.40;;;;;;;;;;4940012;28;20233;-32
2023/09/06 04:52:50;;;;;;;3.50;3.20;;;;;;;;;;4964103;28;20248;-32
2023/09/06 04:55:19;;;;;;;4.03;3.60;;;;;;;;;;4960681;28;20201;-34
2023/09/06 04:57:46;;;;;;;4.17;3.47;;;;;;;;;;4970326;28;20209;-32
2023/09/06 05:00:23;;;;;;;5.17;3.37;;;;;;;;;;4963360;28;20221;-32
2023/09/06 05:02:51;;;;;;;3.50;3.20;;;;;;;;;;4948658;28;20197;-30
2023/09/06 05:05:19;;;;;;;3.07;2.83;;;;;;;;;;4964558;28;20229;-30
2023/09/06 05:07:46;;;;;;;3.10;2.90;;;;;;;;;;4972986;28;20205;-32
2023/09/06 05:10:14;;;;;;;4.10;3.10;;;;;;;;;;4945811;28;20229;-29
2023/09/06 05:12:42;;;;;;;3.90;3.47;;;;;;;;;;4960464;28;20255;-28
2023/09/06 05:15:12;;;;;;;3.37;3.07;;;;;;;;;;4960451;28;20227;-31
2023/09/06 05:17:39;;;;;;;5.07;3.43;;;;;;;;;;4958919;28;20214;-32
2023/09/06 05:20:26;;;;;;;7.20;4.20;;;;;;;;;;4950634;28;20246;-31
2023/09/06 05:22:53;;;;;;;5.40;3.23;;;;;;;;;;4951931;28;20212;-29
2023/09/06 05:25:22;;;;;;;3.37;3.00;;;;;;;;;;4947302;28;20229;-32
2023/09/06 05:27:50;;;;;;;3.17;2.87;;;;;;;;;;4947482;28;20205;-29
2023/09/06 05:30:17;;;;;;;6.77;3.40;;;;;;;;;;4954359;28;20576;-32
2023/09/06 05:32:44;;;;;;;3.77;3.13;;;;;;;;;;4955823;28;20209;-32
2023/09/06 05:35:13;;;;;;;4.83;3.43;;;;;;;;;;4951809;28;20211;-32
2023/09/06 05:37:41;;;;;;;5.10;3.47;;;;;;;;;;4954499;28;20245;-29
2023/09/06 05:40:10;;;;;;;6.43;3.40;;;;;;;;;;4953887;28;20233;-33
2023/09/06 05:42:39;;;;;;;4.13;3.00;;;;;;;;;;4955840;28;20218;-32
2023/09/06 05:45:07;;;;;;;4.07;3.43;;;;;;;;;;4955113;28;20231;-31
2023/09/06 05:47:35;;;;;;;3.70;3.23;;;;;;;;;;4955957;28;20215;-31
2023/09/06 05:50:03;;;;;;;3.90;3.50;;;;;;;;;;4947859;28;20262;-32
2023/09/06 05:52:30;;;;;;;4.30;2.90;;;;;;;;;;4955805;28;20209;-32
2023/09/06 05:54:57;;;;;;;4.23;3.23;;;;;;;;;;4946222;28;20380;-31
2023/09/06 05:57:24;;;;;;;4.67;3.33;;;;;;;;;;4960556;28;20215;-31
2023/09/06 05:59:53;;;;;;;4.33;3.53;;;;;;;;;;4963731;28;20229;-33
2023/09/06 06:02:20;;;;;;;3.30;2.90;;;;;;;;;;4956246;28;20298;-29
2023/09/06 06:04:47;;;;;;;4.47;3.60;;;;;;;;;;4952577;28;20236;-32
2023/09/06 06:07:15;;;;;;;5.33;3.47;;;;;;;;;;4956875;28;20242;-32
2023/09/06 06:09:43;;;;;;;4.50;3.40;;;;;;;;;;4951961;28;20249;-31
2023/09/06 06:12:11;;;;;;;4.03;3.63;;;;;;;;;;4959026;28;20253;-29
2023/09/06 06:14:38;;;;;;;4.03;3.13;;;;;;;;;;4951737;28;20238;-31
2023/09/06 06:17:09;;;;;;;3.47;3.10;;;;;;;;;;4954263;28;20224;-31
2023/09/06 06:19:36;;;;;;;3.83;3.00;;;;;;;;;;4949260;28;20234;-33
2023/09/06 06:22:03;;;;;;;4.60;3.23;;;;;;;;;;4956149;28;20300;-31
2023/09/06 06:24:31;;;;;;;4.70;3.40;;;;;;;;;;4949422;28;20214;-31
2023/09/06 06:26:59;;;;;;;4.50;3.10;;;;;;;;;;4948617;28;20214;-32
2023/09/06 06:29:28;;;;;;;6.07;3.27;;;;;;;;;;4954504;28;20230;-31
2023/09/06 06:31:55;;;;;;;3.90;3.17;;;;;;;;;;4949688;28;20203;-30
2023/09/06 06:34:25;;;;;;;4.10;3.60;;;;;;;;;;4954684;28;20202;-30
2023/09/06 06:36:52;;;;;;;3.47;3.17;;;;;;;;;;4955354;28;20207;-29
2023/09/06 06:39:19;;;;;;;3.33;3.03;;;;;;;;;;4947694;28;20222;-32
2023/09/06 06:41:46;;;;;;;3.50;2.73;;;;;;;;;;4946252;28;20212;-30
2023/09/06 06:44:13;;;;;;;3.67;3.00;;;;;;;;;;4967466;28;20216;-31
2023/09/06 06:46:41;;;;;;;4.47;4.07;;;;;;;;;;4963607;28;20236;-30
2023/09/06 06:49:08;;;;;;;4.07;3.67;;;;;;;;;;4942572;28;20231;-34
2023/09/06 06:51:38;;;;;;;3.90;3.50;;;;;;;;;;4950420;28;20245;-29
2023/09/06 06:54:05;;;;;;;4.00;3.60;;;;;;;;;;4941220;28;20205;-28
2023/09/06 06:56:32;;;;;;;4.67;3.80;;;;;;;;;;4947644;28;20416;-29
2023/09/06 06:59:00;;;;;;;8.27;4.30;;;;;;;;;;4950729;28;20601;-29
2023/09/06 07:01:27;;;;;;;3.43;3.13;;;;;;;;;;4953332;28;20214;-30
2023/09/06 07:03:55;;;;;;;3.53;3.23;;;;;;;;;;4961510;28;20275;-33
2023/09/06 07:06:22;;;;;;;4.13;3.60;;;;;;;;;;4954761;28;20272;-33
2023/09/06 07:08:51;;;;;;;4.37;3.77;;;;;;;;;;4950104;28;20314;-34
2023/09/06 07:11:18;;;;;;;4.37;3.97;;;;;;;;;;4952096;28;20214;-30
2023/09/06 07:13:46;;;;;;;5.80;4.30;;;;;;;;;;4959155;28;20212;-30
2023/09/06 07:16:13;;;;;;;4.60;4.20;;;;;;;;;;4957717;28;20219;-31
2023/09/06 07:18:41;;;;;;;5.07;4.50;;;;;;;;;;4946081;28;20212;-30
2023/09/06 07:21:08;;;;;;;4.47;4.07;;;;;;;;;;4954358;28;20206;-29
2023/09/06 07:23:35;;;;;;;4.53;3.63;;;;;;;;;;4944515;28;20243;-34
2023/09/06 07:26:04;;;;;;;4.23;3.80;;;;;;;;;;4950477;28;20372;-30
2023/09/06 07:28:37;;;;;;;4.73;4.20;;;;;;;;;;4954459;28;20207;-33
2023/09/06 07:31:04;;;;;;;7.47;4.30;;;;;;;;;;4953869;28;20511;-31
2023/09/06 07:33:31;;;;;;;5.33;4.83;;;;;;;;;;4949534;28;20209;-34
2023/09/06 07:35:58;;;;;;;4.50;4.10;;;;;;;;;;4958805;28;20209;-31
2023/09/06 07:38:28;;;;;;;4.63;4.03;;;;;;;;;;4948949;28;20285;-32
2023/09/06 07:40:59;;;;;;;4.37;3.80;;;;;;;;;;4947113;28;20209;-29
2023/09/06 07:43:28;;;;;;;5.27;4.00;;;;;;;;;;4952479;28;20681;-31
2023/09/06 07:45:57;;;;;;;7.67;3.90;;;;;;;;;;4953016;28;20232;-32
2023/09/06 07:48:24;;;;;;;4.93;3.97;;;;;;;;;;4947171;28;20211;-32
2023/09/06 07:50:52;;;;;;;4.47;3.80;;;;;;;;;;4956091;28;20238;-31
2023/09/06 07:53:19;;;;;;;6.07;3.90;;;;;;;;;;4957016;28;20302;-34
2023/09/06 07:55:46;;;;;;;4.37;3.97;;;;;;;;;;4945467;28;20243;-31
2023/09/06 07:58:14;;;;;;;4.27;3.87;;;;;;;;;;4953155;28;20217;-29
2023/09/06 08:00:42;;;;;;;4.77;3.93;;;;;;;;;;4963181;28;20226;-28
2023/09/06 08:03:09;;;;;;;5.87;4.27;;;;;;;;;;4941575;28;20695;-31
2023/09/06 08:05:37;;;;;;;4.50;4.10;;;;;;;;;;4947072;28;20294;-30
2023/09/06 08:08:04;;;;;;;4.50;3.77;;;;;;;;;;4961638;28;20274;-30
2023/09/06 08:10:31;;;;;;;3.90;3.47;;;;;;;;;;4943104;28;20237;-28
2023/09/06 08:13:05;;;;;;;4.40;4.00;;;;;;;;;;4952935;28;20215;-30
2023/09/06 08:15:32;;;;;;;4.90;4.23;;;;;;;;;;4952210;28;20297;-29
2023/09/06 08:18:01;;;;;;;6.50;4.77;;;;;;;;;;4956948;28;20236;-31
2023/09/06 08:20:28;;;;;;;5.67;4.73;;;;;;;;;;4946625;28;20222;-32
2023/09/06 08:22:55;;;;;;;4.10;3.70;;;;;;;;;;4953353;28;20203;-30
2023/09/06 08:25:22;;;;;;;5.53;4.20;;;;;;;;;;4951561;28;20207;-32
2023/09/06 08:27:50;;;;;;;4.60;4.20;;;;;;;;;;4948978;28;20542;-27
2023/09/06 08:30:18;;;;;;;4.00;3.63;;;;;;;;;;4961846;28;20239;-31
2023/09/06 08:32:58;;;;;;;4.37;3.97;;;;;;;;;;4960599;28;20332;-34
2023/09/06 08:35:27;;;;;;;4.90;4.40;;;;;;;;;;4950589;28;20287;-30
2023/09/06 08:37:54;;;;;;;5.90;4.00;;;;;;;;;;4956218;28;20214;-30
2023/09/06 08:40:22;;;;;;;5.93;4.10;;;;;;;;;;4951307;28;20230;-32
2023/09/06 08:42:52;;;;;;;4.70;4.13;;;;;;;;;;4963601;28;20291;-30
2023/09/06 08:45:21;;;;;;;4.20;3.80;;;;;;;;;;4962695;28;20199;-31
2023/09/06 08:47:58;;;;;;;5.17;3.87;;;;;;;;;;4960345;28;20208;-31
2023/09/06 08:50:28;;;;;;;4.53;3.93;;;;;;;;;;4955892;28;20232;-31
2023/09/06 08:52:56;;;;;;;4.23;3.83;;;;;;;;;;4956653;28;20275;-32
2023/09/06 08:55:23;;;;;;;4.97;3.70;;;;;;;;;;4949089;28;20201;-30
2023/09/06 08:57:50;;;;;;;7.83;3.97;;;;;;;;;;4957079;28;20284;-29
2023/09/06 09:00:20;;;;;;;5.97;4.53;;;;;;;;;;4963838;28;20288;-31
2023/09/06 09:02:47;;;;;;;4.83;4.10;;;;;;;;;;4955030;28;20276;-31
2023/09/06 09:05:15;;;;;;;7.05;3.53;;;;;;;;;;4948254;28;20335;-33
2023/09/06 09:07:43;;;;;;;5.20;3.53;;;;;;;;;;4942715;28;20335;-31
2023/09/06 09:10:13;;;;;;;4.88;3.63;;;;;;;;;;4943464;28;20232;-32
2023/09/06 09:12:41;;;;;;;5.43;3.78;;;;;;;;;;4954020;28;20209;-28
2023/09/06 09:15:09;;;;;;;5.18;3.80;;;;;;;;;;4954723;28;20216;-33
2023/09/06 09:17:38;;;;;;;4.20;3.75;;;;;;;;;;4950319;28;20220;-33
2023/09/06 09:20:06;;;;;;;3.85;3.45;;;;;;;;;;4949257;28;20405;-33
2023/09/06 09:22:35;;;;;;;3.78;3.40;;;;;;;;;;4955038;28;20221;-32
2023/09/06 09:25:10;;;;;;;3.03;2.72;;;;;;;;;;4950506;28;20209;-32
2023/09/06 09:27:38;;;;;;;4.43;4.00;;;;;;;;;;4956081;28;20233;-30
2023/09/06 09:30:06;;;;;;;3.55;3.25;;;;;;;;;;4956839;28;20317;-28
2023/09/06 09:32:34;;;;;;;3.75;3.33;;;;;;;;;;4948462;28;20267;-33
2023/09/06 09:35:01;;;;;;;4.22;3.40;;;;;;;;;;4945996;28;20205;-30
2023/09/06 09:37:35;;;;;;;6.97;3.83;;;;;;;;;;4956634;28;20216;-31
2023/09/06 09:40:16;;;;;;;3.35;3.05;;;;;;;;;;4941562;28;20707;-31
2023/09/06 09:42:52;;;;;;;4.97;3.67;;;;;;;;;;4951490;28;20207;-31
2023/09/06 09:45:19;;;;;;;3.83;3.45;;;;;;;;;;4958200;28;20313;-30
2023/09/06 09:47:46;;;;;;;3.67;3.20;;;;;;;;;;4954715;28;20232;-33
2023/09/06 09:50:14;;;;;;;4.05;3.50;;;;;;;;;;4955002;28;20257;-31
2023/09/06 09:52:42;;;;;;;3.83;3.42;;;;;;;;;;4959826;28;20221;-31
2023/09/06 09:55:10;;;;;;;5.75;4.07;;;;;;;;;;4941415;28;20301;-29
2023/09/06 09:57:39;;;;;;;6.90;3.50;;;;;;;;;;4950894;28;20233;-32
2023/09/06 10:00:08;;;;;;;8.55;3.78;;;;;;;;;;4957541;29;20312;-33
2023/09/06 10:02:47;;;;;;;4.00;3.60;;;;;;;;;;4951612;28;20205;-32
2023/09/06 10:05:17;;;;;;;4.40;3.30;;;;;;;;;;4945749;28;20240;-31
2023/09/06 10:07:44;;;;;;;3.72;3.08;;;;;;;;;;4956180;28;20226;-31
2023/09/06 10:10:12;;;;;;;3.95;3.55;;;;;;;;;;4948678;28;20231;-30
2023/09/06 10:12:42;;;;;;;5.70;3.78;;;;;;;;;;4954858;28;20209;-32
2023/09/06 10:15:13;;;;;;;4.25;3.30;;;;;;;;;;4960089;28;20213;-33
2023/09/06 10:17:40;;;;;;;5.22;3.80;;;;;;;;;;4951950;28;20258;-33
2023/09/06 10:20:12;;;;;;;4.90;3.58;;;;;;;;;;4947928;28;20328;-30
2023/09/06 10:22:41;;;;;;;3.65;3.35;;;;;;;;;;4954601;28;20209;-31
2023/09/06 10:25:10;;;;;;;4.15;3.75;;;;;;;;;;4948814;28;20735;-31
2023/09/06 10:27:45;;;;;;;4.72;3.28;;;;;;;;;;4955104;28;20235;-30
2023/09/06 10:30:17;;;;;;;3.53;3.22;;;;;;;;;;4957953;28;20226;-32
2023/09/06 10:32:45;;;;;;;6.35;3.70;;;;;;;;;;4952099;28;20234;-33
2023/09/06 10:35:25;;;;;;;4.80;3.30;;;;;;;;;;4946012;28;20206;-29
2023/09/06 10:38:02;;;;;;;4.15;3.53;;;;;;;;;;4958186;28;20292;-32
2023/09/06 10:41:02;;;;;;;5.38;3.33;;;;;;;;;;4949195;28;20225;-31
2023/09/06 10:43:52;;;;;;;3.92;3.47;;;;;;;;;;4953617;28;20290;-32
2023/09/06 10:46:29;;;;;;;3.20;2.97;;;;;;;;;;4954315;28;20228;-32
2023/09/06 10:49:15;;;;;;;3.33;2.88;;;;;;;;;;4944660;28;20229;-28
2023/09/06 10:51:59;;;;;;;3.30;3.00;;;;;;;;;;4946687;28;20219;-33
2023/09/06 10:54:26;;;;;;;3.60;3.30;;;;;;;;;;4952525;28;20260;-32
2023/09/06 10:57:05;;;;;;;4.05;3.42;;;;;;;;;;4950733;28;20221;-32
2023/09/06 10:59:33;;;;;;;4.37;3.40;;;;;;;;;;4954751;28;20239;-31
2023/09/06 11:02:15;;;;;;;3.90;3.15;;;;;;;;;;4951909;28;20213;-29
2023/09/06 11:04:42;;;;;;;5.53;3.50;;;;;;;;;;4947648;28;20208;-31
2023/09/06 11:07:13;;;;;;;3.90;3.28;;;;;;;;;;4954545;28;20221;-30
2023/09/06 11:09:43;;;;;;;4.25;3.20;;;;;;;;;;4946277;28;20220;-30
2023/09/06 11:12:11;;;;;;;4.35;3.15;;;;;;;;;;4956721;28;20205;-29
2023/09/06 11:14:38;;;;;;;3.55;3.10;;;;;;;;;;4952666;28;20209;-29
2023/09/06 11:17:05;;;;;;;3.50;3.20;;;;;;;;;;4951810;28;20205;-32
2023/09/06 11:19:35;;;;;;;3.90;2.95;;;;;;;;;;4947727;28;20297;-29
2023/09/06 11:22:06;;;;;;;3.65;3.08;;;;;;;;;;4949595;28;20216;-30
2023/09/06 11:24:34;;;;;;;4.22;2.80;;;;;;;;;;4951341;28;20215;-30
2023/09/06 11:27:03;;;;;;;3.38;3.00;;;;;;;;;;4953132;28;20232;-28
2023/09/06 11:29:31;;;;;;;4.03;3.00;;;;;;;;;;4956574;28;20233;-30
2023/09/06 11:32:09;;;;;;;4.53;2.92;;;;;;;;;;4957200;28;20209;-29
2023/09/06 11:34:43;;;;;;;3.47;2.80;;;;;;;;;;4951211;28;20218;-30
2023/09/06 11:37:12;;;;;;;2.80;2.60;;;;;;;;;;4953604;28;20204;-30
2023/09/06 11:39:40;;;;;;;4.95;3.38;;;;;;;;;;4953060;28;20232;-32
2023/09/06 11:42:08;;;;;;;4.75;3.40;;;;;;;;;;4959462;28;20208;-34
2023/09/06 11:44:39;;;;;;;4.35;2.95;;;;;;;;;;4957023;28;20255;-33
2023/09/06 11:47:06;;;;;;;2.92;2.72;;;;;;;;;;4955031;28;20228;-32
2023/09/06 11:49:35;;;;;;;3.28;2.92;;;;;;;;;;4950007;28;20234;-32
2023/09/06 11:52:05;;;;;;;3.10;2.42;;;;;;;;;;4958326;28;20292;-31
2023/09/06 11:54:32;;;;;;;4.40;3.13;;;;;;;;;;4948686;28;20292;-33
2023/09/06 11:56:59;;;;;;;3.45;3.15;;;;;;;;;;4946734;28;20230;-30
2023/09/06 11:59:29;;;;;;;3.15;2.85;;;;;;;;;;4953684;28;20234;-31
2023/09/06 12:01:59;;;;;;;3.20;2.90;;;;;;;;;;4958855;28;20244;-31
2023/09/06 12:04:28;;;;;;;4.15;2.80;;;;;;;;;;4946944;28;20221;-31
2023/09/06 12:06:57;;;;;;;4.03;2.78;;;;;;;;;;4951153;28;20228;-32
2023/09/06 12:09:29;;;;;;;4.90;2.72;;;;;;;;;;4944731;28;20232;-31
2023/09/06 12:11:56;;;;;;;4.30;3.03;;;;;;;;;;4952798;28;20220;-31
2023/09/06 12:14:23;;;;;;;2.72;2.53;;;;;;;;;;4957319;28;20197;-29
2023/09/06 12:16:50;;;;;;;2.88;2.60;;;;;;;;;;4964145;28;20248;-31
2023/09/06 12:19:18;;;;;;;3.42;2.88;;;;;;;;;;4950578;28;20232;-33
2023/09/06 12:21:45;;;;;;;3.15;2.85;;;;;;;;;;4955881;28;20242;-31
2023/09/06 12:24:12;;;;;;;3.95;2.97;;;;;;;;;;4955401;28;20211;-30
2023/09/06 12:26:41;;;;;;;3.00;2.55;;;;;;;;;;4954572;28;20213;-32
2023/09/06 12:29:08;;;;;;;3.40;2.90;;;;;;;;;;4959711;28;20316;-30
2023/09/06 12:31:35;;;;;;;4.70;2.90;;;;;;;;;;4954651;28;20206;-31
2023/09/06 12:34:03;;;;;;;3.38;2.97;;;;;;;;;;4953342;28;20298;-32
2023/09/06 12:36:30;;;;;;;3.22;2.92;;;;;;;;;;4955708;28;20211;-33
2023/09/06 12:38:57;;;;;;;2.72;2.53;;;;;;;;;;4956153;28;20244;-33
2023/09/06 12:41:24;;;;;;;3.55;3.22;;;;;;;;;;4956771;28;20212;-31
2023/09/06 12:43:53;;;;;;;3.42;3.13;;;;;;;;;;4958880;28;20199;-32
2023/09/06 12:46:21;;;;;;;3.17;2.88;;;;;;;;;;4957220;28;20209;-32
2023/09/06 12:48:48;;;;;;;4.70;2.90;;;;;;;;;;4954661;28;20227;-30
2023/09/06 12:51:15;;;;;;;3.38;3.08;;;;;;;;;;4964035;28;20239;-30
2023/09/06 12:53:42;;;;;;;3.20;2.90;;;;;;;;;;4953277;28;20228;-32
2023/09/06 12:56:11;;;;;;;3.42;3.05;;;;;;;;;;4955795;28;20217;-29
2023/09/06 12:58:39;;;;;;;4.28;3.08;;;;;;;;;;4956814;28;20210;-32
2023/09/06 13:01:10;;;;;;;3.38;3.08;;;;;;;;;;4957349;28;20212;-32
2023/09/06 13:03:37;;;;;;;3.60;3.30;;;;;;;;;;4952358;28;20317;-28
2023/09/06 13:06:06;;;;;;;3.13;2.65;;;;;;;;;;4956843;28;20203;-28
2023/09/06 13:08:34;;;;;;;3.22;2.95;;;;;;;;;;4957495;28;20737;-31
2023/09/06 13:11:01;;;;;;;2.90;2.70;;;;;;;;;;4947724;28;20213;-31
2023/09/06 13:13:28;;;;;;;4.18;2.75;;;;;;;;;;4956337;28;20304;-31
2023/09/06 13:15:55;;;;;;;4.68;2.88;;;;;;;;;;4957121;28;20209;-31
2023/09/06 13:18:25;;;;;;;3.42;2.85;;;;;;;;;;4954448;28;20209;-30
2023/09/06 13:20:56;;;;;;;3.60;3.30;;;;;;;;;;4970444;28;20239;-31
2023/09/06 13:23:23;;;;;;;3.60;2.75;;;;;;;;;;4958180;28;20207;-29
2023/09/06 13:25:50;;;;;;;3.08;2.80;;;;;;;;;;4955504;28;20208;-30
2023/09/06 13:28:18;;;;;;;3.50;3.20;;;;;;;;;;4962451;28;20227;-30
2023/09/06 13:30:45;;;;;;;2.83;2.63;;;;;;;;;;4962639;28;20228;-33
2023/09/06 13:33:12;;;;;;;6.03;3.22;;;;;;;;;;4954806;28;20205;-31
2023/09/06 13:35:41;;;;;;;3.63;2.92;;;;;;;;;;4956226;28;20521;-29
2023/09/06 13:38:08;;;;;;;4.82;3.20;;;;;;;;;;4964517;28;20287;-33
2023/09/06 13:40:35;;;;;;;3.92;3.40;;;;;;;;;;4945465;28;20305;-34
2023/09/06 13:43:03;;;;;;;3.17;2.88;;;;;;;;;;4955667;28;20222;-30
2023/09/06 13:45:30;;;;;;;3.40;3.10;;;;;;;;;;4955244;28;20217;-32
2023/09/06 13:47:57;;;;;;;5.07;2.72;;;;;;;;;;4952414;28;20235;-30
2023/09/06 13:50:24;;;;;;;2.92;2.60;;;;;;;;;;4953761;28;20431;-29
2023/09/06 13:53:00;;;;;;;2.60;2.40;;;;;;;;;;4963927;28;20210;-30
2023/09/06 13:55:28;;;;;;;3.50;2.70;;;;;;;;;;4950618;28;20386;-33
2023/09/06 13:57:55;;;;;;;2.75;2.30;;;;;;;;;;4956046;28;20295;-28
2023/09/06 14:00:22;;;;;;;3.88;2.22;;;;;;;;;;4957816;28;20219;-28
2023/09/06 14:02:49;;;;;;;2.97;2.30;;;;;;;;;;4954840;28;20206;-33
2023/09/06 14:05:19;;;;;;;2.70;2.50;;;;;;;;;;4946778;28;20206;-30
2023/09/06 14:07:46;;;;;;;2.53;2.20;;;;;;;;;;4953387;28;20311;-30
2023/09/06 14:10:15;;;;;;;2.80;2.50;;;;;;;;;;4947085;28;20226;-30
2023/09/06 14:12:42;;;;;;;2.72;2.53;;;;;;;;;;4954975;28;20207;-32
2023/09/06 14:15:09;;;;;;;2.63;2.42;;;;;;;;;;4961020;28;20211;-30
2023/09/06 14:17:37;;;;;;;5.43;2.45;;;;;;;;;;4952362;28;20236;-32
2023/09/06 14:20:05;;;;;;;2.47;2.28;;;;;;;;;;4950568;28;20226;-31
2023/09/06 14:22:33;;;;;;;2.70;2.30;;;;;;;;;;4954464;28;20223;-30
2023/09/06 14:25:00;;;;;;;3.30;2.35;;;;;;;;;;4945501;28;20281;-30
2023/09/06 14:27:28;;;;;;;6.00;2.30;;;;;;;;;;4956431;28;20224;-31
2023/09/06 14:29:57;;;;;;;2.50;2.15;;;;;;;;;;4954540;28;20220;-29
2023/09/06 14:32:24;;;;;;;2.22;2.10;;;;;;;;;;4950250;28;20671;-30
2023/09/06 14:34:51;;;;;;;2.65;2.20;;;;;;;;;;4946772;28;20214;-33
2023/09/06 14:37:19;;;;;;;2.08;1.95;;;;;;;;;;4954915;28;20219;-30
2023/09/06 14:39:46;;;;;;;2.90;2.40;;;;;;;;;;4956300;28;20235;-31
2023/09/06 14:42:13;;;;;;;2.05;1.90;;;;;;;;;;4954728;28;20212;-30
2023/09/06 14:44:41;;;;;;;2.95;2.53;;;;;;;;;;4955770;28;20212;-30
2023/09/06 14:47:08;;;;;;;3.45;2.83;;;;;;;;;;4958996;28;20216;-32
2023/09/06 14:49:36;;;;;;;2.42;2.22;;;;;;;;;;4954281;28;20249;-30
2023/09/06 14:52:03;;;;;;;3.20;2.45;;;;;;;;;;4952463;28;20229;-30
2023/09/06 14:54:31;;;;;;;2.42;2.22;;;;;;;;;;4945292;28;20248;-33